sensor_id;sensor_type;location;lat;lon;timestamp;temperature;humidity
20911;DHT22;10615;42.702;23.314;2022-12-29T00:00:13;6.40;99.90
20911;DHT22;10615;42.702;23.314;2022-12-29T00:01:14;6.30;99.90
20911;DHT22;10615;42.702;23.314;2022-12-29T00:02:15;6.40;99.90
20911;DHT22;10615;42.702;23.314;2022-12-29T00:03:16;6.40;99.90
20911;DHT22;10615;42.702;23.314;2022-12-29T00:04:16;6.40;99.90
20911;DHT22;10615;42.702;23.314;2022-12-29T00:05:17;6.40;99.90
20911;DHT22;10615;42.702;23.314;2022-12-29T00:06:18;6.40;99.90
20911;DHT22;10615;42.702;23.314;2022-12-29T00:07:19;6.40;99.90
20911;DHT22;10615;42.702;23.314;2022-12-29T00:08:19;6.40;99.90
20911;DHT22;10615;42.702;23.314;2022-12-29T00:09:20;6.40;99.90
20911;DHT22;10615;42.702;23.314;2022-12-29T00:10:21;6.40;99.90
20911;DHT22;10615;42.702;23.314;2022-12-29T00:11:24;6.40;99.90
20911;DHT22;10615;42.702;23.314;2022-12-29T00:12:24;6.40;99.90
20911;DHT22;10615;42.702;23.314;2022-12-29T00:13:25;6.40;99.90
20911;DHT22;10615;42.702;23.314;2022-12-29T00:14:44;6.40;99.90
20911;DHT22;10615;42.702;23.314;2022-12-29T00:16:07;6.40;99.90
20911;DHT22;10615;42.702;23.314;2022-12-29T00:17:08;6.40;99.90
20911;DHT22;10615;42.702;23.314;2022-12-29T00:18:08;6.40;99.90
20911;DHT22;10615;42.702;23.314;2022-12-29T00:19:10;6.40;99.90
20911;DHT22;10615;42.702;23.314;2022-12-29T00:20:34;6.40;99.90
20911;DHT22;10615;42.702;23.314;2022-12-29T00:21:53;6.30;99.90
20911;DHT22;10615;42.702;23.314;2022-12-29T00:23:20;6.30;99.90
20911;DHT22;10615;42.702;23.314;2022-12-29T00:24:40;6.30;99.90
20911;DHT22;10615;42.702;23.314;2022-12-29T00:26:03;6.30;99.90
20911;DHT22;10615;42.702;23.314;2022-12-29T00:27:22;6.30;99.90
20911;DHT22;10615;42.702;23.314;2022-12-29T00:28:41;6.30;99.90
20911;DHT22;10615;42.702;23.314;2022-12-29T00:30:00;6.30;99.90
20911;DHT22;10615;42.702;23.314;2022-12-29T00:31:19;6.30;99.90
20911;DHT22;10615;42.702;23.314;2022-12-29T00:32:38;6.40;99.90
20911;DHT22;10615;42.702;23.314;2022-12-29T00:33:57;6.40;99.90
20911;DHT22;10615;42.702;23.314;2022-12-29T00:35:37;6.40;99.90
20911;DHT22;10615;42.702;23.314;2022-12-29T00:36:40;6.30;99.90
20911;DHT22;10615;42.702;23.314;2022-12-29T00:37:44;6.30;99.90
20911;DHT22;10615;42.702;23.314;2022-12-29T00:39:13;6.30;99.90
20911;DHT22;10615;42.702;23.314;2022-12-29T00:40:32;6.30;99.90
20911;DHT22;10615;42.702;23.314;2022-12-29T00:41:51;6.20;99.90
20911;DHT22;10615;42.702;23.314;2022-12-29T00:43:10;6.20;99.90
20911;DHT22;10615;42.702;23.314;2022-12-29T00:44:29;6.20;99.90
20911;DHT22;10615;42.702;23.314;2022-12-29T00:45:30;6.20;99.90
20911;DHT22;10615;42.702;23.314;2022-12-29T00:46:32;6.20;99.90
20911;DHT22;10615;42.702;23.314;2022-12-29T00:47:32;6.30;99.90
20911;DHT22;10615;42.702;23.314;2022-12-29T00:48:33;6.30;99.90
20911;DHT22;10615;42.702;23.314;2022-12-29T00:49:52;6.30;99.90
20911;DHT22;10615;42.702;23.314;2022-12-29T00:50:55;6.40;99.90
20911;DHT22;10615;42.702;23.314;2022-12-29T00:52:09;6.40;99.90
20911;DHT22;10615;42.702;23.314;2022-12-29T00:53:10;6.40;99.90
20911;DHT22;10615;42.702;23.314;2022-12-29T00:54:12;6.40;99.90
20911;DHT22;10615;42.702;23.314;2022-12-29T00:55:12;6.30;99.90
20911;DHT22;10615;42.702;23.314;2022-12-29T00:56:13;6.30;99.90
20911;DHT22;10615;42.702;23.314;2022-12-29T00:57:14;6.30;99.90
20911;DHT22;10615;42.702;23.314;2022-12-29T00:58:14;6.30;99.90
20911;DHT22;10615;42.702;23.314;2022-12-29T00:59:16;6.30;99.90
20911;DHT22;10615;42.702;23.314;2022-12-29T01:00:16;6.30;99.90
20911;DHT22;10615;42.702;23.314;2022-12-29T01:01:17;6.30;99.90
20911;DHT22;10615;42.702;23.314;2022-12-29T01:02:18;6.40;99.90
20911;DHT22;10615;42.702;23.314;2022-12-29T01:03:19;6.40;99.90
20911;DHT22;10615;42.702;23.314;2022-12-29T01:04:21;6.40;99.90
20911;DHT22;10615;42.702;23.314;2022-12-29T01:05:22;6.40;99.90
20911;DHT22;10615;42.702;23.314;2022-12-29T01:06:23;6.40;99.90
20911;DHT22;10615;42.702;23.314;2022-12-29T01:07:23;6.40;99.90
20911;DHT22;10615;42.702;23.314;2022-12-29T01:08:24;6.40;99.90
20911;DHT22;10615;42.702;23.314;2022-12-29T01:09:25;6.40;99.90
20911;DHT22;10615;42.702;23.314;2022-12-29T01:10:44;6.40;99.90
20911;DHT22;10615;42.702;23.314;2022-12-29T01:11:44;6.30;99.90
20911;DHT22;10615;42.702;23.314;2022-12-29T01:12:45;6.30;99.90
20911;DHT22;10615;42.702;23.314;2022-12-29T01:13:47;6.30;99.90
20911;DHT22;10615;42.702;23.314;2022-12-29T01:14:48;6.30;99.90
20911;DHT22;10615;42.702;23.314;2022-12-29T01:15:53;6.30;99.90
20911;DHT22;10615;42.702;23.314;2022-12-29T01:16:54;6.30;99.90
20911;DHT22;10615;42.702;23.314;2022-12-29T01:17:55;6.40;99.90
20911;DHT22;10615;42.702;23.314;2022-12-29T01:18:56;6.40;99.90
20911;DHT22;10615;42.702;23.314;2022-12-29T01:19:57;6.40;99.90
20911;DHT22;10615;42.702;23.314;2022-12-29T01:21:02;6.40;99.90
20911;DHT22;10615;42.702;23.314;2022-12-29T01:22:03;6.40;99.90
20911;DHT22;10615;42.702;23.314;2022-12-29T01:23:04;6.40;99.90
20911;DHT22;10615;42.702;23.314;2022-12-29T01:24:05;6.50;99.90
20911;DHT22;10615;42.702;23.314;2022-12-29T01:25:06;6.40;99.90
20911;DHT22;10615;42.702;23.314;2022-12-29T01:26:11;6.50;99.90
20911;DHT22;10615;42.702;23.314;2022-12-29T01:27:12;6.40;99.90
20911;DHT22;10615;42.702;23.314;2022-12-29T01:28:13;6.40;99.90
20911;DHT22;10615;42.702;23.314;2022-12-29T01:29:14;6.50;99.90
20911;DHT22;10615;42.702;23.314;2022-12-29T01:30:15;6.40;99.90
20911;DHT22;10615;42.702;23.314;2022-12-29T01:31:16;6.50;99.90
20911;DHT22;10615;42.702;23.314;2022-12-29T01:32:16;6.40;99.90
20911;DHT22;10615;42.702;23.314;2022-12-29T01:33:17;6.50;99.90
20911;DHT22;10615;42.702;23.314;2022-12-29T01:34:18;6.50;99.90
20911;DHT22;10615;42.702;23.314;2022-12-29T01:35:18;6.40;99.90
20911;DHT22;10615;42.702;23.314;2022-12-29T01:36:19;6.30;99.90
20911;DHT22;10615;42.702;23.314;2022-12-29T01:37:20;6.30;99.90
20911;DHT22;10615;42.702;23.314;2022-12-29T01:38:20;6.20;99.90
20911;DHT22;10615;42.702;23.314;2022-12-29T01:39:21;6.20;99.90
20911;DHT22;10615;42.702;23.314;2022-12-29T01:40:22;6.20;99.90
20911;DHT22;10615;42.702;23.314;2022-12-29T01:41:23;6.10;99.90
20911;DHT22;10615;42.702;23.314;2022-12-29T01:42:25;6.10;99.90
20911;DHT22;10615;42.702;23.314;2022-12-29T01:43:55;6.10;99.90
20911;DHT22;10615;42.702;23.314;2022-12-29T01:45:12;6.10;99.90
20911;DHT22;10615;42.702;23.314;2022-12-29T01:47:29;6.10;99.90
20911;DHT22;10615;42.702;23.314;2022-12-29T01:48:31;6.00;99.90
20911;DHT22;10615;42.702;23.314;2022-12-29T01:49:31;6.00;99.90
20911;DHT22;10615;42.702;23.314;2022-12-29T01:50:35;5.90;99.90
20911;DHT22;10615;42.702;23.314;2022-12-29T01:51:58;5.90;99.90
20911;DHT22;10615;42.702;23.314;2022-12-29T01:53:10;5.90;99.90
20911;DHT22;10615;42.702;23.314;2022-12-29T01:54:35;5.80;99.90
20911;DHT22;10615;42.702;23.314;2022-12-29T01:55:40;5.80;99.90
20911;DHT22;10615;42.702;23.314;2022-12-29T01:56:42;5.70;99.90
20911;DHT22;10615;42.702;23.314;2022-12-29T01:57:47;5.70;99.90
20911;DHT22;10615;42.702;23.314;2022-12-29T01:58:56;5.60;99.90
20911;DHT22;10615;42.702;23.314;2022-12-29T02:00:03;5.60;99.90
20911;DHT22;10615;42.702;23.314;2022-12-29T02:01:05;5.60;99.90
20911;DHT22;10615;42.702;23.314;2022-12-29T02:02:07;5.60;99.90
20911;DHT22;10615;42.702;23.314;2022-12-29T02:03:08;5.50;99.90
20911;DHT22;10615;42.702;23.314;2022-12-29T02:04:11;5.50;99.90
20911;DHT22;10615;42.702;23.314;2022-12-29T02:05:33;5.50;99.90
20911;DHT22;10615;42.702;23.314;2022-12-29T02:06:41;5.60;99.90
20911;DHT22;10615;42.702;23.314;2022-12-29T02:07:44;5.60;99.90
20911;DHT22;10615;42.702;23.314;2022-12-29T02:08:47;5.60;99.90
20911;DHT22;10615;42.702;23.314;2022-12-29T02:09:50;5.60;99.90
20911;DHT22;10615;42.702;23.314;2022-12-29T02:10:51;5.60;99.90
20911;DHT22;10615;42.702;23.314;2022-12-29T02:11:52;5.60;99.90
20911;DHT22;10615;42.702;23.314;2022-12-29T02:12:53;5.60;99.90
20911;DHT22;10615;42.702;23.314;2022-12-29T02:13:54;5.60;99.90
20911;DHT22;10615;42.702;23.314;2022-12-29T02:14:58;5.70;99.90
20911;DHT22;10615;42.702;23.314;2022-12-29T02:22:35;5.80;99.90
20911;DHT22;10615;42.702;23.314;2022-12-29T02:30:05;5.80;99.90
20911;DHT22;10615;42.702;23.314;2022-12-29T02:31:08;5.70;99.90
20911;DHT22;10615;42.702;23.314;2022-12-29T02:37:03;5.80;99.90
20911;DHT22;10615;42.702;23.314;2022-12-29T02:38:25;5.80;99.90
20911;DHT22;10615;42.702;23.314;2022-12-29T02:39:33;5.80;99.90
20911;DHT22;10615;42.702;23.314;2022-12-29T02:42:12;5.80;99.90
20911;DHT22;10615;42.702;23.314;2022-12-29T02:43:26;5.90;99.90
20911;DHT22;10615;42.702;23.314;2022-12-29T02:48:27;6.00;99.90
20911;DHT22;10615;42.702;23.314;2022-12-29T02:49:34;6.00;99.90
20911;DHT22;10615;42.702;23.314;2022-12-29T02:50:47;6.10;99.90
20911;DHT22;10615;42.702;23.314;2022-12-29T02:53:25;6.20;99.90
20911;DHT22;10615;42.702;23.314;2022-12-29T02:54:48;6.20;99.90
20911;DHT22;10615;42.702;23.314;2022-12-29T02:55:49;6.20;99.90
20911;DHT22;10615;42.702;23.314;2022-12-29T02:56:51;6.20;99.90
20911;DHT22;10615;42.702;23.314;2022-12-29T02:58:25;6.30;99.90
20911;DHT22;10615;42.702;23.314;2022-12-29T02:59:25;6.30;99.90
20911;DHT22;10615;42.702;23.314;2022-12-29T03:00:26;6.30;99.90
20911;DHT22;10615;42.702;23.314;2022-12-29T03:01:42;6.30;99.90
20911;DHT22;10615;42.702;23.314;2022-12-29T03:08:26;6.40;99.90
20911;DHT22;10615;42.702;23.314;2022-12-29T03:10:50;6.40;99.90
20911;DHT22;10615;42.702;23.314;2022-12-29T03:12:14;6.40;99.90
20911;DHT22;10615;42.702;23.314;2022-12-29T03:13:42;6.40;99.90
20911;DHT22;10615;42.702;23.314;2022-12-29T03:15:12;6.40;99.90
20911;DHT22;10615;42.702;23.314;2022-12-29T03:16:48;6.40;99.90
20911;DHT22;10615;42.702;23.314;2022-12-29T03:18:02;6.50;99.90
20911;DHT22;10615;42.702;23.314;2022-12-29T03:19:10;6.40;99.90
20911;DHT22;10615;42.702;23.314;2022-12-29T03:20:19;6.50;99.90
20911;DHT22;10615;42.702;23.314;2022-12-29T03:21:42;6.50;99.90
20911;DHT22;10615;42.702;23.314;2022-12-29T03:23:03;6.50;99.90
20911;DHT22;10615;42.702;23.314;2022-12-29T03:24:05;6.40;99.70
20911;DHT22;10615;42.702;23.314;2022-12-29T03:25:30;6.40;99.60
20911;DHT22;10615;42.702;23.314;2022-12-29T03:26:30;6.40;99.60
20911;DHT22;10615;42.702;23.314;2022-12-29T03:27:50;6.40;99.60
20911;DHT22;10615;42.702;23.314;2022-12-29T03:28:53;6.30;99.60
20911;DHT22;10615;42.702;23.314;2022-12-29T03:30:00;6.30;99.90
20911;DHT22;10615;42.702;23.314;2022-12-29T03:31:03;6.30;99.90
20911;DHT22;10615;42.702;23.314;2022-12-29T03:32:05;6.20;99.90
20911;DHT22;10615;42.702;23.314;2022-12-29T03:33:10;6.20;99.90
20911;DHT22;10615;42.702;23.314;2022-12-29T03:34:13;6.20;99.90
20911;DHT22;10615;42.702;23.314;2022-12-29T03:35:19;6.20;99.90
20911;DHT22;10615;42.702;23.314;2022-12-29T03:36:42;6.10;99.90
20911;DHT22;10615;42.702;23.314;2022-12-29T03:37:51;6.00;99.90
20911;DHT22;10615;42.702;23.314;2022-12-29T03:39:08;6.00;99.90
20911;DHT22;10615;42.702;23.314;2022-12-29T03:40:12;5.90;99.90
20911;DHT22;10615;42.702;23.314;2022-12-29T03:41:17;5.90;99.90
20911;DHT22;10615;42.702;23.314;2022-12-29T03:42:22;5.80;99.90
20911;DHT22;10615;42.702;23.314;2022-12-29T03:43:24;5.90;99.90
20911;DHT22;10615;42.702;23.314;2022-12-29T03:44:36;5.80;99.90
20911;DHT22;10615;42.702;23.314;2022-12-29T03:45:38;5.70;99.90
20911;DHT22;10615;42.702;23.314;2022-12-29T03:46:39;5.70;99.90
20911;DHT22;10615;42.702;23.314;2022-12-29T03:47:39;5.60;99.90
20911;DHT22;10615;42.702;23.314;2022-12-29T03:48:40;5.60;99.90
20911;DHT22;10615;42.702;23.314;2022-12-29T03:49:41;5.50;99.90
20911;DHT22;10615;42.702;23.314;2022-12-29T03:50:41;5.40;99.90
20911;DHT22;10615;42.702;23.314;2022-12-29T03:51:42;5.40;99.90
20911;DHT22;10615;42.702;23.314;2022-12-29T03:52:43;5.40;99.90
20911;DHT22;10615;42.702;23.314;2022-12-29T03:53:43;5.40;99.90
20911;DHT22;10615;42.702;23.314;2022-12-29T03:54:44;5.30;99.90
20911;DHT22;10615;42.702;23.314;2022-12-29T03:55:45;5.30;99.90
20911;DHT22;10615;42.702;23.314;2022-12-29T03:56:46;5.30;99.90
20911;DHT22;10615;42.702;23.314;2022-12-29T03:57:46;5.30;99.90
20911;DHT22;10615;42.702;23.314;2022-12-29T03:58:47;5.20;99.90
20911;DHT22;10615;42.702;23.314;2022-12-29T03:59:47;5.10;99.90
20911;DHT22;10615;42.702;23.314;2022-12-29T04:00:48;5.10;99.90
20911;DHT22;10615;42.702;23.314;2022-12-29T04:01:49;5.10;99.90
20911;DHT22;10615;42.702;23.314;2022-12-29T04:02:50;5.00;99.90
20911;DHT22;10615;42.702;23.314;2022-12-29T04:03:51;5.00;99.90
20911;DHT22;10615;42.702;23.314;2022-12-29T04:04:51;5.00;99.90
20911;DHT22;10615;42.702;23.314;2022-12-29T04:05:52;5.00;99.90
20911;DHT22;10615;42.702;23.314;2022-12-29T04:06:52;5.00;99.90
20911;DHT22;10615;42.702;23.314;2022-12-29T04:07:53;4.90;99.90
20911;DHT22;10615;42.702;23.314;2022-12-29T04:08:54;4.90;99.90
20911;DHT22;10615;42.702;23.314;2022-12-29T04:09:54;4.90;99.90
20911;DHT22;10615;42.702;23.314;2022-12-29T04:10:55;4.90;99.90
20911;DHT22;10615;42.702;23.314;2022-12-29T04:11:55;4.90;99.90
20911;DHT22;10615;42.702;23.314;2022-12-29T04:12:56;4.80;99.90
20911;DHT22;10615;42.702;23.314;2022-12-29T04:13:57;4.90;99.90
20911;DHT22;10615;42.702;23.314;2022-12-29T04:14:57;4.90;99.90
20911;DHT22;10615;42.702;23.314;2022-12-29T04:15:58;4.90;99.90
20911;DHT22;10615;42.702;23.314;2022-12-29T04:16:58;4.90;99.90
20911;DHT22;10615;42.702;23.314;2022-12-29T04:17:59;4.90;99.90
20911;DHT22;10615;42.702;23.314;2022-12-29T04:19:00;4.90;99.90
20911;DHT22;10615;42.702;23.314;2022-12-29T04:20:00;4.90;99.90
20911;DHT22;10615;42.702;23.314;2022-12-29T04:21:20;4.90;99.90
20911;DHT22;10615;42.702;23.314;2022-12-29T04:22:20;4.90;99.90
20911;DHT22;10615;42.702;23.314;2022-12-29T04:23:21;4.80;99.90
20911;DHT22;10615;42.702;23.314;2022-12-29T04:24:21;4.80;99.90
20911;DHT22;10615;42.702;23.314;2022-12-29T04:25:22;4.80;99.90
20911;DHT22;10615;42.702;23.314;2022-12-29T04:26:23;4.80;99.90
20911;DHT22;10615;42.702;23.314;2022-12-29T04:27:23;4.80;99.90
20911;DHT22;10615;42.702;23.314;2022-12-29T04:28:24;4.80;99.90
20911;DHT22;10615;42.702;23.314;2022-12-29T04:29:25;4.80;99.90
20911;DHT22;10615;42.702;23.314;2022-12-29T04:30:25;4.70;99.90
20911;DHT22;10615;42.702;23.314;2022-12-29T04:31:26;4.70;99.90
20911;DHT22;10615;42.702;23.314;2022-12-29T04:32:27;4.70;99.90
20911;DHT22;10615;42.702;23.314;2022-12-29T04:33:27;4.70;99.90
20911;DHT22;10615;42.702;23.314;2022-12-29T04:34:28;4.70;99.90
20911;DHT22;10615;42.702;23.314;2022-12-29T04:35:29;4.80;99.90
20911;DHT22;10615;42.702;23.314;2022-12-29T04:36:29;4.80;99.90
20911;DHT22;10615;42.702;23.314;2022-12-29T04:37:30;4.80;99.90
20911;DHT22;10615;42.702;23.314;2022-12-29T04:38:31;4.90;99.90
20911;DHT22;10615;42.702;23.314;2022-12-29T04:39:31;4.90;99.90
20911;DHT22;10615;42.702;23.314;2022-12-29T04:40:34;4.90;99.90
20911;DHT22;10615;42.702;23.314;2022-12-29T04:41:35;4.90;99.90
20911;DHT22;10615;42.702;23.314;2022-12-29T04:42:35;4.90;99.90
20911;DHT22;10615;42.702;23.314;2022-12-29T04:43:36;4.90;99.90
20911;DHT22;10615;42.702;23.314;2022-12-29T04:44:36;4.90;99.90
20911;DHT22;10615;42.702;23.314;2022-12-29T04:45:38;4.90;99.90
20911;DHT22;10615;42.702;23.314;2022-12-29T04:46:38;4.90;99.90
20911;DHT22;10615;42.702;23.314;2022-12-29T04:47:39;4.90;99.90
20911;DHT22;10615;42.702;23.314;2022-12-29T04:48:40;5.00;99.90
20911;DHT22;10615;42.702;23.314;2022-12-29T04:49:40;5.00;99.90
20911;DHT22;10615;42.702;23.314;2022-12-29T04:50:41;5.00;99.90
20911;DHT22;10615;42.702;23.314;2022-12-29T04:51:42;5.00;99.90
20911;DHT22;10615;42.702;23.314;2022-12-29T04:52:43;5.00;99.90
20911;DHT22;10615;42.702;23.314;2022-12-29T04:53:44;5.00;99.90
20911;DHT22;10615;42.702;23.314;2022-12-29T04:54:44;5.00;99.90
20911;DHT22;10615;42.702;23.314;2022-12-29T04:55:49;5.00;99.90
20911;DHT22;10615;42.702;23.314;2022-12-29T04:56:50;5.00;99.90
20911;DHT22;10615;42.702;23.314;2022-12-29T04:57:51;5.00;99.90
20911;DHT22;10615;42.702;23.314;2022-12-29T04:58:51;5.00;99.90
20911;DHT22;10615;42.702;23.314;2022-12-29T04:59:52;5.00;99.90
20911;DHT22;10615;42.702;23.314;2022-12-29T05:00:52;4.90;99.90
20911;DHT22;10615;42.702;23.314;2022-12-29T05:01:53;5.00;99.90
20911;DHT22;10615;42.702;23.314;2022-12-29T05:02:54;4.90;99.90
20911;DHT22;10615;42.702;23.314;2022-12-29T05:03:54;5.00;99.90
20911;DHT22;10615;42.702;23.314;2022-12-29T05:04:55;5.00;99.90
20911;DHT22;10615;42.702;23.314;2022-12-29T05:05:56;5.00;99.90
20911;DHT22;10615;42.702;23.314;2022-12-29T05:06:57;5.00;99.90
20911;DHT22;10615;42.702;23.314;2022-12-29T05:07:58;5.00;99.90
20911;DHT22;10615;42.702;23.314;2022-12-29T05:08:58;5.00;99.90
20911;DHT22;10615;42.702;23.314;2022-12-29T05:09:59;5.10;99.90
20911;DHT22;10615;42.702;23.314;2022-12-29T05:11:00;5.10;99.90
20911;DHT22;10615;42.702;23.314;2022-12-29T05:12:01;5.20;99.90
20911;DHT22;10615;42.702;23.314;2022-12-29T05:13:01;5.20;99.90
20911;DHT22;10615;42.702;23.314;2022-12-29T05:14:02;5.20;99.90
20911;DHT22;10615;42.702;23.314;2022-12-29T05:15:04;5.20;99.90
20911;DHT22;10615;42.702;23.314;2022-12-29T05:16:05;5.20;99.90
20911;DHT22;10615;42.702;23.314;2022-12-29T05:19:03;5.20;99.90
20911;DHT22;10615;42.702;23.314;2022-12-29T05:20:05;5.30;99.90
20911;DHT22;10615;42.702;23.314;2022-12-29T05:21:06;5.20;99.90
20911;DHT22;10615;42.702;23.314;2022-12-29T05:22:07;5.20;99.90
20911;DHT22;10615;42.702;23.314;2022-12-29T05:23:07;5.20;99.90
20911;DHT22;10615;42.702;23.314;2022-12-29T05:24:08;5.20;99.90
20911;DHT22;10615;42.702;23.314;2022-12-29T05:25:09;5.10;99.90
20911;DHT22;10615;42.702;23.314;2022-12-29T05:26:10;5.20;99.90
20911;DHT22;10615;42.702;23.314;2022-12-29T05:27:11;5.20;99.90
20911;DHT22;10615;42.702;23.314;2022-12-29T05:28:12;5.10;99.90
20911;DHT22;10615;42.702;23.314;2022-12-29T05:29:12;5.10;99.90
20911;DHT22;10615;42.702;23.314;2022-12-29T05:30:13;5.20;99.90
20911;DHT22;10615;42.702;23.314;2022-12-29T05:31:14;5.20;99.90
20911;DHT22;10615;42.702;23.314;2022-12-29T05:32:14;5.20;99.90
20911;DHT22;10615;42.702;23.314;2022-12-29T05:33:16;5.30;99.90
20911;DHT22;10615;42.702;23.314;2022-12-29T05:34:16;5.30;99.90
20911;DHT22;10615;42.702;23.314;2022-12-29T05:35:17;5.30;99.90
20911;DHT22;10615;42.702;23.314;2022-12-29T05:36:18;5.30;99.90
20911;DHT22;10615;42.702;23.314;2022-12-29T05:37:19;5.40;99.90
20911;DHT22;10615;42.702;23.314;2022-12-29T05:38:19;5.50;99.90
20911;DHT22;10615;42.702;23.314;2022-12-29T05:39:20;5.50;99.90
20911;DHT22;10615;42.702;23.314;2022-12-29T05:40:22;5.60;99.90
20911;DHT22;10615;42.702;23.314;2022-12-29T05:41:22;5.60;99.90
20911;DHT22;10615;42.702;23.314;2022-12-29T05:42:23;5.70;99.90
20911;DHT22;10615;42.702;23.314;2022-12-29T05:43:24;5.70;99.90
20911;DHT22;10615;42.702;23.314;2022-12-29T05:44:25;5.80;99.90
20911;DHT22;10615;42.702;23.314;2022-12-29T05:45:25;5.80;99.90
20911;DHT22;10615;42.702;23.314;2022-12-29T05:46:26;5.90;99.90
20911;DHT22;10615;42.702;23.314;2022-12-29T05:47:27;5.90;99.90
20911;DHT22;10615;42.702;23.314;2022-12-29T05:48:27;5.90;99.90
20911;DHT22;10615;42.702;23.314;2022-12-29T05:49:28;6.00;99.90
20911;DHT22;10615;42.702;23.314;2022-12-29T05:50:29;5.90;99.90
20911;DHT22;10615;42.702;23.314;2022-12-29T05:53:26;5.90;99.90
20911;DHT22;10615;42.702;23.314;2022-12-29T05:54:27;5.90;99.90
20911;DHT22;10615;42.702;23.314;2022-12-29T05:55:27;5.90;99.90
20911;DHT22;10615;42.702;23.314;2022-12-29T05:56:28;5.90;99.90
20911;DHT22;10615;42.702;23.314;2022-12-29T05:57:29;6.00;99.90
20911;DHT22;10615;42.702;23.314;2022-12-29T05:58:30;6.00;99.90
20911;DHT22;10615;42.702;23.314;2022-12-29T05:59:30;6.10;99.90
20911;DHT22;10615;42.702;23.314;2022-12-29T06:00:31;6.10;99.90
20911;DHT22;10615;42.702;23.314;2022-12-29T06:01:32;6.20;99.90
20911;DHT22;10615;42.702;23.314;2022-12-29T06:02:34;6.20;99.90
20911;DHT22;10615;42.702;23.314;2022-12-29T06:03:35;6.30;99.90
20911;DHT22;10615;42.702;23.314;2022-12-29T06:04:35;6.40;99.90
20911;DHT22;10615;42.702;23.314;2022-12-29T06:05:36;6.40;99.90
20911;DHT22;10615;42.702;23.314;2022-12-29T06:06:37;6.40;99.90
20911;DHT22;10615;42.702;23.314;2022-12-29T06:07:39;6.50;99.90
20911;DHT22;10615;42.702;23.314;2022-12-29T06:08:39;6.60;99.90
20911;DHT22;10615;42.702;23.314;2022-12-29T06:09:40;6.60;99.90
20911;DHT22;10615;42.702;23.314;2022-12-29T06:10:41;6.60;99.80
20911;DHT22;10615;42.702;23.314;2022-12-29T06:11:41;6.60;99.80
20911;DHT22;10615;42.702;23.314;2022-12-29T06:12:43;6.60;99.70
20911;DHT22;10615;42.702;23.314;2022-12-29T06:13:44;6.70;99.50
20911;DHT22;10615;42.702;23.314;2022-12-29T06:14:44;6.70;99.50
20911;DHT22;10615;42.702;23.314;2022-12-29T06:15:47;6.80;99.30
20911;DHT22;10615;42.702;23.314;2022-12-29T06:16:48;6.80;99.00
20911;DHT22;10615;42.702;23.314;2022-12-29T06:17:48;6.80;98.60
20911;DHT22;10615;42.702;23.314;2022-12-29T06:18:49;6.90;98.20
20911;DHT22;10615;42.702;23.314;2022-12-29T06:19:50;7.00;97.90
20911;DHT22;10615;42.702;23.314;2022-12-29T06:20:51;7.10;97.80
20911;DHT22;10615;42.702;23.314;2022-12-29T06:21:51;7.30;97.60
20911;DHT22;10615;42.702;23.314;2022-12-29T06:22:53;7.50;97.10
20911;DHT22;10615;42.702;23.314;2022-12-29T06:23:54;7.70;96.50
20911;DHT22;10615;42.702;23.314;2022-12-29T06:24:54;7.90;96.00
20911;DHT22;10615;42.702;23.314;2022-12-29T06:25:55;7.90;95.30
20911;DHT22;10615;42.702;23.314;2022-12-29T06:26:57;7.90;94.60
20911;DHT22;10615;42.702;23.314;2022-12-29T06:27:58;7.90;94.30
20911;DHT22;10615;42.702;23.314;2022-12-29T06:28:58;7.80;94.50
20911;DHT22;10615;42.702;23.314;2022-12-29T06:29:59;7.80;94.10
20911;DHT22;10615;42.702;23.314;2022-12-29T06:31:00;7.80;94.10
20911;DHT22;10615;42.702;23.314;2022-12-29T06:32:03;7.70;93.80
20911;DHT22;10615;42.702;23.314;2022-12-29T06:33:04;7.70;93.70
20911;DHT22;10615;42.702;23.314;2022-12-29T06:34:05;7.60;93.70
20911;DHT22;10615;42.702;23.314;2022-12-29T06:35:06;7.60;93.60
20911;DHT22;10615;42.702;23.314;2022-12-29T06:36:07;7.60;93.50
20911;DHT22;10615;42.702;23.314;2022-12-29T06:37:07;7.50;93.40
20911;DHT22;10615;42.702;23.314;2022-12-29T06:38:08;7.50;93.40
20911;DHT22;10615;42.702;23.314;2022-12-29T06:39:10;7.50;93.30
20911;DHT22;10615;42.702;23.314;2022-12-29T06:40:11;7.50;93.30
20911;DHT22;10615;42.702;23.314;2022-12-29T06:41:12;7.50;93.20
20911;DHT22;10615;42.702;23.314;2022-12-29T06:42:12;7.60;93.10
20911;DHT22;10615;42.702;23.314;2022-12-29T06:43:13;7.80;93.20
20911;DHT22;10615;42.702;23.314;2022-12-29T06:44:14;8.20;93.10
20911;DHT22;10615;42.702;23.314;2022-12-29T06:45:15;8.60;92.80
20911;DHT22;10615;42.702;23.314;2022-12-29T06:46:15;9.00;92.00
20911;DHT22;10615;42.702;23.314;2022-12-29T06:47:16;9.40;91.10
20911;DHT22;10615;42.702;23.314;2022-12-29T06:48:17;9.80;90.30
20911;DHT22;10615;42.702;23.314;2022-12-29T06:49:17;10.20;88.90
20911;DHT22;10615;42.702;23.314;2022-12-29T06:50:18;10.60;86.80
20911;DHT22;10615;42.702;23.314;2022-12-29T06:51:19;10.90;84.80
20911;DHT22;10615;42.702;23.314;2022-12-29T06:52:20;11.30;82.80
20911;DHT22;10615;42.702;23.314;2022-12-29T06:53:20;11.60;81.00
20911;DHT22;10615;42.702;23.314;2022-12-29T06:54:21;11.90;79.50
20911;DHT22;10615;42.702;23.314;2022-12-29T06:55:22;12.20;78.30
20911;DHT22;10615;42.702;23.314;2022-12-29T06:56:22;12.40;76.80
20911;DHT22;10615;42.702;23.314;2022-12-29T06:57:23;12.30;75.00
20911;DHT22;10615;42.702;23.314;2022-12-29T06:58:24;12.10;73.90
20911;DHT22;10615;42.702;23.314;2022-12-29T06:59:24;11.80;73.50
20911;DHT22;10615;42.702;23.314;2022-12-29T07:00:26;11.50;73.60
20911;DHT22;10615;42.702;23.314;2022-12-29T07:01:27;11.30;74.30
20911;DHT22;10615;42.702;23.314;2022-12-29T07:02:28;11.10;75.00
20911;DHT22;10615;42.702;23.314;2022-12-29T07:03:28;10.90;75.40
20911;DHT22;10615;42.702;23.314;2022-12-29T07:04:29;10.70;76.10
20911;DHT22;10615;42.702;23.314;2022-12-29T07:05:30;10.80;76.90
20911;DHT22;10615;42.702;23.314;2022-12-29T07:06:32;10.70;77.10
20911;DHT22;10615;42.702;23.314;2022-12-29T07:07:33;10.60;77.20
20911;DHT22;10615;42.702;23.314;2022-12-29T07:08:34;10.40;77.40
20911;DHT22;10615;42.702;23.314;2022-12-29T07:09:35;10.30;77.50
20911;DHT22;10615;42.702;23.314;2022-12-29T07:10:35;10.20;77.70
20911;DHT22;10615;42.702;23.314;2022-12-29T07:11:36;10.10;78.10
20911;DHT22;10615;42.702;23.314;2022-12-29T07:12:37;10.00;78.30
20911;DHT22;10615;42.702;23.314;2022-12-29T07:13:38;9.80;78.40
20911;DHT22;10615;42.702;23.314;2022-12-29T07:14:38;9.80;78.60
20911;DHT22;10615;42.702;23.314;2022-12-29T07:15:39;9.70;78.80
20911;DHT22;10615;42.702;23.314;2022-12-29T07:16:40;9.70;79.40
20911;DHT22;10615;42.702;23.314;2022-12-29T07:17:41;9.70;79.60
20911;DHT22;10615;42.702;23.314;2022-12-29T07:18:41;9.90;79.50
20911;DHT22;10615;42.702;23.314;2022-12-29T07:19:42;9.90;79.20